sensor_id;sensor_type;location;lat;lon;timestamp;pressure;altitude;pressure_sealevel;temperature;humidity
2268;BME280;11052;43.338;25.502;2023-03-04T00:01:40;100829.81;;;6.13;100.00
2268;BME280;11052;43.338;25.502;2023-03-04T00:04:07;100838.41;;;6.14;100.00
2268;BME280;11052;43.338;25.502;2023-03-04T00:06:34;100828.97;;;6.13;100.00
2268;BME280;11052;43.338;25.502;2023-03-04T00:09:02;100834.97;;;6.12;100.00
2268;BME280;11052;43.338;25.502;2023-03-04T00:11:30;100833.25;;;6.14;100.00
2268;BME280;11052;43.338;25.502;2023-03-04T00:13:57;100833.25;;;6.14;100.00
2268;BME280;11052;43.338;25.502;2023-03-04T00:16:24;100828.97;;;6.11;100.00
2268;BME280;11052;43.338;25.502;2023-03-04T00:18:53;100840.13;;;6.10;100.00
2268;BME280;11052;43.338;25.502;2023-03-04T00:21:21;100833.25;;;6.09;100.00
2268;BME280;11052;43.338;25.502;2023-03-04T00:23:48;100835.81;;;6.12;100.00
2268;BME280;11052;43.338;25.502;2023-03-04T00:26:16;100838.47;;;6.05;100.00
2268;BME280;11052;43.338;25.502;2023-03-04T00:28:43;100837.59;;;6.04;100.00
2268;BME280;11052;43.338;25.502;2023-03-04T00:31:11;100837.59;;;6.01;100.00
2268;BME280;11052;43.338;25.502;2023-03-04T00:33:38;100835.88;;;6.03;100.00
2268;BME280;11052;43.338;25.502;2023-03-04T00:36:07;100829.03;;;5.99;100.00
2268;BME280;11052;43.338;25.502;2023-03-04T00:38:34;100835.03;;;6.03;100.00
2268;BME280;11052;43.338;25.502;2023-03-04T00:41:01;100828.16;;;6.02;100.00
2268;BME280;11052;43.338;25.502;2023-03-04T00:43:28;100830.75;;;6.03;100.00
2268;BME280;11052;43.338;25.502;2023-03-04T00:45:56;100835.03;;;6.00;100.00
2268;BME280;11052;43.338;25.502;2023-03-04T00:48:24;100823.03;;;5.99;100.00
2268;BME280;11052;43.338;25.502;2023-03-04T00:50:51;100830.75;;;6.03;100.00
2268;BME280;11052;43.338;25.502;2023-03-04T00:53:20;100834.19;;;5.96;100.00
2268;BME280;11052;43.338;25.502;2023-03-04T00:55:48;100825.59;;;5.97;100.00
2268;BME280;11052;43.338;25.502;2023-03-04T00:58:15;100820.47;;;5.99;100.00
2268;BME280;11052;43.338;25.502;2023-03-04T01:00:43;100815.31;;;5.99;100.00
2268;BME280;11052;43.338;25.502;2023-03-04T01:03:10;100815.31;;;5.97;100.00
2268;BME280;11052;43.338;25.502;2023-03-04T01:05:37;100825.59;;;5.97;100.00
2268;BME280;11052;43.338;25.502;2023-03-04T01:08:04;100829.91;;;5.95;100.00
2268;BME280;11052;43.338;25.502;2023-03-04T01:10:33;100830.75;;;5.96;100.00
2268;BME280;11052;43.338;25.502;2023-03-04T01:13:00;100826.47;;;5.93;100.00
2268;BME280;11052;43.338;25.502;2023-03-04T01:15:27;100813.59;;;5.82;100.00
2268;BME280;11052;43.338;25.502;2023-03-04T01:17:55;100821.34;;;5.78;100.00
2268;BME280;11052;43.338;25.502;2023-03-04T01:20:22;100817.94;;;5.67;100.00
2268;BME280;11052;43.338;25.502;2023-03-04T01:22:49;100817.06;;;5.74;100.00
2268;BME280;11052;43.338;25.502;2023-03-04T01:25:16;100815.34;;;5.73;100.00
2268;BME280;11052;43.338;25.502;2023-03-04T01:27:45;100804.22;;;5.66;100.00
2268;BME280;11052;43.338;25.502;2023-03-04T01:30:13;100801.66;;;5.52;100.00
2268;BME280;11052;43.338;25.502;2023-03-04T01:32:40;100799.94;;;5.54;100.00
2268;BME280;11052;43.338;25.502;2023-03-04T01:35:07;100798.22;;;5.56;100.00
2268;BME280;11052;43.338;25.502;2023-03-04T01:37:35;100804.22;;;5.58;100.00
2268;BME280;11052;43.338;25.502;2023-03-04T01:40:02;100800.78;;;5.58;100.00
2268;BME280;11052;43.338;25.502;2023-03-04T01:42:33;100800.81;;;5.55;100.00
2268;BME280;11052;43.338;25.502;2023-03-04T01:45:03;100799.94;;;5.54;100.00
2268;BME280;11052;43.338;25.502;2023-03-04T01:47:32;100797.38;;;5.53;100.00
2268;BME280;11052;43.338;25.502;2023-03-04T01:50:03;100787.94;;;5.52;100.00
2268;BME280;11052;43.338;25.502;2023-03-04T01:52:31;100790.53;;;5.52;100.00
2268;BME280;11052;43.338;25.502;2023-03-04T01:54:58;100787.94;;;5.50;100.00
2268;BME280;11052;43.338;25.502;2023-03-04T01:57:25;100793.94;;;5.46;100.00
2268;BME280;11052;43.338;25.502;2023-03-04T02:00:20;100795.66;;;5.41;100.00
2268;BME280;11052;43.338;25.502;2023-03-04T02:02:49;100794.81;;;5.36;100.00
2268;BME280;11052;43.338;25.502;2023-03-04T02:05:19;100800.81;;;5.32;100.00
2268;BME280;11052;43.338;25.502;2023-03-04T02:07:46;100805.09;;;5.30;100.00
2268;BME280;11052;43.338;25.502;2023-03-04T02:10:14;100798.25;;;5.26;100.00
2268;BME280;11052;43.338;25.502;2023-03-04T02:12:41;100794.81;;;5.27;100.00
2268;BME280;11052;43.338;25.502;2023-03-04T02:15:09;100795.69;;;5.24;100.00
2268;BME280;11052;43.338;25.502;2023-03-04T02:17:38;100788.00;;;5.15;100.00
2268;BME280;11052;43.338;25.502;2023-03-04T02:20:14;100788.00;;;5.15;100.00
2268;BME280;11052;43.338;25.502;2023-03-04T02:22:48;100799.16;;;5.16;100.00
2268;BME280;11052;43.338;25.502;2023-03-04T02:25:20;100797.44;;;5.16;100.00
2268;BME280;11052;43.338;25.502;2023-03-04T02:27:51;100805.13;;;5.15;100.00
2268;BME280;11052;43.338;25.502;2023-03-04T02:30:20;100798.28;;;5.12;100.00
2268;BME280;11052;43.338;25.502;2023-03-04T02:32:47;100799.13;;;5.11;100.00
2268;BME280;11052;43.338;25.502;2023-03-04T02:35:16;100799.13;;;5.08;100.00
2268;BME280;11052;43.338;25.502;2023-03-04T02:37:44;100791.44;;;5.05;100.00
2268;BME280;11052;43.338;25.502;2023-03-04T02:40:14;100789.72;;;5.09;100.00
2268;BME280;11052;43.338;25.502;2023-03-04T02:42:43;100781.16;;;5.05;100.00
2268;BME280;11052;43.338;25.502;2023-03-04T02:45:31;100788.00;;;5.08;100.00
2268;BME280;11052;43.338;25.502;2023-03-04T02:48:01;100786.28;;;5.08;100.00
2268;BME280;11052;43.338;25.502;2023-03-04T02:50:32;100791.44;;;5.11;100.00
2268;BME280;11052;43.338;25.502;2023-03-04T02:52:59;100795.72;;;5.11;100.00
2268;BME280;11052;43.338;25.502;2023-03-04T02:55:26;100791.44;;;5.02;100.00
2268;BME280;11052;43.338;25.502;2023-03-04T02:57:54;100784.56;;;4.95;100.00
2268;BME280;11052;43.338;25.502;2023-03-04T03:00:21;100782.84;;;4.89;100.00
2268;BME280;11052;43.338;25.502;2023-03-04T03:02:49;100790.56;;;4.85;100.00
2268;BME280;11052;43.338;25.502;2023-03-04T03:05:17;100793.13;;;4.76;100.00
2268;BME280;11052;43.338;25.502;2023-03-04T03:07:44;100779.41;;;4.81;100.00
2268;BME280;11052;43.338;25.502;2023-03-04T03:10:11;100777.72;;;4.89;100.00
2268;BME280;11052;43.338;25.502;2023-03-04T03:12:38;100781.16;;;4.94;100.00
2268;BME280;11052;43.338;25.502;2023-03-04T03:15:06;100782.00;;;4.98;100.00
2268;BME280;11052;43.338;25.502;2023-03-04T03:17:34;100786.28;;;4.98;100.00
2268;BME280;11052;43.338;25.502;2023-03-04T03:20:03;100786.28;;;5.01;100.00
2268;BME280;11052;43.338;25.502;2023-03-04T03:22:30;100783.72;;;5.02;100.00
2268;BME280;11052;43.338;25.502;2023-03-04T03:24:57;100790.56;;;5.02;100.00
2268;BME280;11052;43.338;25.502;2023-03-04T03:27:25;100788.84;;;5.01;100.00
2268;BME280;11052;43.338;25.502;2023-03-04T03:29:52;100784.56;;;5.06;100.00
2268;BME280;11052;43.338;25.502;2023-03-04T03:32:19;100784.59;;;5.07;100.00
2268;BME280;11052;43.338;25.502;2023-03-04T03:34:46;100788.00;;;4.99;100.00
2268;BME280;11052;43.338;25.502;2023-03-04T03:37:14;100789.72;;;5.07;100.00
2268;BME280;11052;43.338;25.502;2023-03-04T03:39:41;100785.44;;;5.08;100.00
2268;BME280;11052;43.338;25.502;2023-03-04T03:42:09;100790.56;;;5.12;100.00
2268;BME280;11052;43.338;25.502;2023-03-04T03:44:36;100794.84;;;5.13;100.00
2268;BME280;11052;43.338;25.502;2023-03-04T03:47:03;100793.16;;;5.05;100.00
2268;BME280;11052;43.338;25.502;2023-03-04T03:49:30;100804.28;;;5.01;100.00
2268;BME280;11052;43.338;25.502;2023-03-04T03:51:57;100797.44;;;5.04;100.00
2268;BME280;11052;43.338;25.502;2023-03-04T03:54:26;100792.28;;;5.06;100.00
2268;BME280;11052;43.338;25.502;2023-03-04T03:56:53;100792.28;;;5.00;100.00
2268;BME280;11052;43.338;25.502;2023-03-04T03:59:20;100796.56;;;4.94;100.00
2268;BME280;11052;43.338;25.502;2023-03-04T04:01:48;100789.72;;;4.93;100.00
2268;BME280;11052;43.338;25.502;2023-03-04T04:04:15;100795.69;;;4.86;100.00
2268;BME280;11052;43.338;25.502;2023-03-04T04:06:43;100790.56;;;4.82;100.00
2268;BME280;11052;43.338;25.502;2023-03-04T04:09:10;100785.44;;;4.88;100.00
2268;BME280;11052;43.338;25.502;2023-03-04T04:11:38;100782.00;;;4.93;100.00
2268;BME280;11052;43.338;25.502;2023-03-04T04:14:06;100788.84;;;5.02;100.00
2268;BME280;11052;43.338;25.502;2023-03-04T04:16:33;100782.88;;;4.97;100.00
2268;BME280;11052;43.338;25.502;2023-03-04T04:19:00;100784.56;;;4.98;100.00
2268;BME280;11052;43.338;25.502;2023-03-04T04:21:27;100788.84;;;4.87;100.00
2268;BME280;11052;43.338;25.502;2023-03-04T04:23:54;100784.56;;;4.97;100.00
2268;BME280;11052;43.338;25.502;2023-03-04T04:26:21;100780.28;;;4.96;100.00
2268;BME280;11052;43.338;25.502;2023-03-04T04:28:50;100786.28;;;5.01;100.00
2268;BME280;11052;43.338;25.502;2023-03-04T04:31:17;100784.56;;;5.03;100.00
2268;BME280;11052;43.338;25.502;2023-03-04T04:33:44;100779.44;;;5.06;100.00
2268;BME280;11052;43.338;25.502;2023-03-04T04:36:13;100776.88;;;5.06;100.00
2268;BME280;11052;43.338;25.502;2023-03-04T04:38:40;100771.72;;;4.95;100.00
2268;BME280;11052;43.338;25.502;2023-03-04T04:41:17;100781.16;;;4.94;100.00
2268;BME280;11052;43.338;25.502;2023-03-04T04:43:44;100776.00;;;4.91;100.00
2268;BME280;11052;43.338;25.502;2023-03-04T04:46:13;100770.88;;;4.93;100.00
2268;BME280;11052;43.338;25.502;2023-03-04T04:48:40;100784.56;;;4.90;100.00
2268;BME280;11052;43.338;25.502;2023-03-04T04:51:08;100786.28;;;4.90;100.00
2268;BME280;11052;43.338;25.502;2023-03-04T04:53:35;100780.28;;;4.88;100.00
2268;BME280;11052;43.338;25.502;2023-03-04T04:56:08;100786.28;;;4.93;100.00
2268;BME280;11052;43.338;25.502;2023-03-04T04:58:35;100779.44;;;5.03;100.00
2268;BME280;11052;43.338;25.502;2023-03-04T05:01:03;100781.16;;;5.04;100.00
2268;BME280;11052;43.338;25.502;2023-03-04T05:03:32;100780.28;;;5.06;100.00
2268;BME280;11052;43.338;25.502;2023-03-04T05:06:00;100779.44;;;5.10;100.00
2268;BME280;11052;43.338;25.502;2023-03-04T05:08:27;100784.59;;;5.16;100.00
2268;BME280;11052;43.338;25.502;2023-03-04T05:10:54;100782.88;;;5.09;100.00
2268;BME280;11052;43.338;25.502;2023-03-04T05:13:22;100791.44;;;5.07;100.00
2268;BME280;11052;43.338;25.502;2023-03-04T05:15:51;100793.16;;;5.11;100.00
2268;BME280;11052;43.338;25.502;2023-03-04T05:18:18;100794.84;;;5.04;100.00
2268;BME280;11052;43.338;25.502;2023-03-04T05:20:50;100804.28;;;5.07;100.00
2268;BME280;11052;43.338;25.502;2023-03-04T05:23:18;100804.28;;;5.10;100.00
2268;BME280;11052;43.338;25.502;2023-03-04T05:25:46;100806.84;;;5.11;100.00
2268;BME280;11052;43.338;25.502;2023-03-04T05:28:13;100806.00;;;5.08;100.00
2268;BME280;11052;43.338;25.502;2023-03-04T05:30:42;100806.84;;;5.10;100.00
2268;BME280;11052;43.338;25.502;2023-03-04T05:33:10;100812.84;;;5.06;100.00
2268;BME280;11052;43.338;25.502;2023-03-04T05:35:39;100811.97;;;5.05;100.00
2268;BME280;11052;43.338;25.502;2023-03-04T05:38:09;100812.84;;;5.12;100.00
2268;BME280;11052;43.338;25.502;2023-03-04T05:40:37;100817.09;;;5.20;100.00
2268;BME280;11052;43.338;25.502;2023-03-04T05:43:05;100823.09;;;5.21;100.00
2268;BME280;11052;43.338;25.502;2023-03-04T05:45:32;100817.97;;;5.27;100.00
2268;BME280;11052;43.338;25.502;2023-03-04T05:47:59;100819.66;;;5.37;100.00
2268;BME280;11052;43.338;25.502;2023-03-04T05:50:27;100817.94;;;5.44;100.00
2268;BME280;11052;43.338;25.502;2023-03-04T05:52:54;100822.22;;;5.49;100.00
2268;BME280;11052;43.338;25.502;2023-03-04T05:55:23;100831.66;;;5.58;100.00
2268;BME280;11052;43.338;25.502;2023-03-04T05:57:52;100826.50;;;5.63;100.00
2268;BME280;11052;43.338;25.502;2023-03-04T06:00:19;100833.34;;;5.68;100.00
2268;BME280;11052;43.338;25.502;2023-03-04T06:02:46;100834.19;;;5.75;100.00
2268;BME280;11052;43.338;25.502;2023-03-04T06:05:14;100833.34;;;5.80;100.00
2268;BME280;11052;43.338;25.502;2023-03-04T06:07:42;100832.47;;;5.84;100.00
2268;BME280;11052;43.338;25.502;2023-03-04T06:10:10;100835.06;;;5.94;100.00
2268;BME280;11052;43.338;25.502;2023-03-04T06:12:39;100835.06;;;5.95;100.00
2268;BME280;11052;43.338;25.502;2023-03-04T06:15:07;100844.47;;;5.98;100.00
2268;BME280;11052;43.338;25.502;2023-03-04T06:17:36;100841.06;;;5.94;100.00
2268;BME280;11052;43.338;25.502;2023-03-04T06:20:04;100841.06;;;5.96;100.00
2268;BME280;11052;43.338;25.502;2023-03-04T06:22:32;100834.19;;;5.99;100.00
2268;BME280;11052;43.338;25.502;2023-03-04T06:24:59;100837.59;;;6.06;100.00
2268;BME280;11052;43.338;25.502;2023-03-04T06:27:26;100832.41;;;6.13;100.00
2268;BME280;11052;43.338;25.502;2023-03-04T06:29:55;100834.09;;;6.20;100.00
2268;BME280;11052;43.338;25.502;2023-03-04T06:32:22;100830.63;;;6.31;100.00
2268;BME280;11052;43.338;25.502;2023-03-04T06:34:49;100832.31;;;6.38;100.00
2268;BME280;11052;43.338;25.502;2023-03-04T06:37:17;100831.41;;;6.45;100.00
2268;BME280;11052;43.338;25.502;2023-03-04T06:39:44;100833.06;;;6.56;100.00
2268;BME280;11052;43.338;25.502;2023-03-04T06:42:12;100835.63;;;6.60;100.00
2268;BME280;11052;43.338;25.502;2023-03-04T06:44:39;100840.75;;;6.66;100.00
2268;BME280;11052;43.338;25.502;2023-03-04T06:47:07;100832.13;;;6.74;100.00
2268;BME280;11052;43.338;25.502;2023-03-04T06:49:35;100833.78;;;6.81;100.00
2268;BME280;11052;43.338;25.502;2023-03-04T06:52:02;100838.03;;;6.93;100.00
2268;BME280;11052;43.338;25.502;2023-03-04T06:54:29;100831.94;;;6.99;100.00
2268;BME280;11052;43.338;25.502;2023-03-04T06:56:56;100828.44;;;7.07;100.00
2268;BME280;11052;43.338;25.502;2023-03-04T06:59:23;100830.97;;;7.13;100.00
2268;BME280;11052;43.338;25.502;2023-03-04T07:01:50;100829.22;;;7.18;100.00
2268;BME280;11052;43.338;25.502;2023-03-04T07:04:19;100821.41;;;7.29;100.00
2268;BME280;11052;43.338;25.502;2023-03-04T07:06:47;100823.00;;;7.42;100.00
2268;BME280;11052;43.338;25.502;2023-03-04T07:09:14;100827.28;;;7.46;100.00
2268;BME280;11052;43.338;25.502;2023-03-04T07:11:41;100825.47;;;7.56;100.00
2268;BME280;11052;43.338;25.502;2023-03-04T07:14:08;100821.91;;;7.69;100.00
2268;BME280;11052;43.338;25.502;2023-03-04T07:16:36;100831.28;;;7.78;100.00
2268;BME280;11052;43.338;25.502;2023-03-04T07:19:03;100821.66;;;7.89;100.00
2268;BME280;11052;43.338;25.502;2023-03-04T07:21:31;100823.31;;;7.96;100.00
2268;BME280;11052;43.338;25.502;2023-03-04T07:23:59;100823.19;;;8.08;100.00
2268;BME280;11052;43.338;25.502;2023-03-04T07:26:26;100822.28;;;8.11;100.00
2268;BME280;11052;43.338;25.502;2023-03-04T07:28:53;100823.91;;;8.19;100.00
2268;BME280;11052;43.338;25.502;2023-03-04T07:31:24;100822.97;;;8.27;100.00
2268;BME280;11052;43.338;25.502;2023-03-04T07:33:55;100829.81;;;8.31;100.00
2268;BME280;11052;43.338;25.502;2023-03-04T07:36:23;100818.63;;;8.29;100.00
2268;BME280;11052;43.338;25.502;2023-03-04T07:38:52;100820.31;;;8.31;100.00
2268;BME280;11052;43.338;25.502;2023-03-04T07:41:21;100818.59;;;8.35;100.00
2268;BME280;11052;43.338;25.502;2023-03-04T07:43:49;100815.09;;;8.39;100.00
2268;BME280;11052;43.338;25.502;2023-03-04T07:46:17;100815.16;;;8.34;100.00
2268;BME280;11052;43.338;25.502;2023-03-04T07:48:44;100811.66;;;8.37;100.00
2268;BME280;11052;43.338;25.502;2023-03-04T07:51:13;100813.38;;;8.38;100.00
2268;BME280;11052;43.338;25.502;2023-03-04T07:53:43;100814.16;;;8.44;100.00
2268;BME280;11052;43.338;25.502;2023-03-04T07:56:14;100813.25;;;8.47;100.00
2268;BME280;11052;43.338;25.502;2023-03-04T07:58:42;100811.34;;;8.61;100.00
2268;BME280;11052;43.338;25.502;2023-03-04T08:01:10;100811.34;;;8.63;100.00
2268;BME280;11052;43.338;25.502;2023-03-04T08:03:38;100810.28;;;8.73;100.00
2268;BME280;11052;43.338;25.502;2023-03-04T08:06:06;100805.81;;;8.85;100.00
2268;BME280;11052;43.338;25.502;2023-03-04T08:08:33;100809.13;;;8.94;100.00
2268;BME280;11052;43.338;25.502;2023-03-04T08:11:03;100802.13;;;9.00;100.00
2268;BME280;11052;43.338;25.502;2023-03-04T08:13:32;100794.28;;;9.06;100.00
2268;BME280;11052;43.338;25.502;2023-03-04T08:16:00;100801.09;;;9.12;100.00
2268;BME280;11052;43.338;25.502;2023-03-04T08:18:27;100798.38;;;9.19;100.00
2268;BME280;11052;43.338;25.502;2023-03-04T08:20:54;100795.00;;;9.14;100.00
2268;BME280;11052;43.338;25.502;2023-03-04T08:23:21;100806.09;;;9.23;100.00
2268;BME280;11052;43.338;25.502;2023-03-04T08:25:49;100795.56;;;9.33;100.00
2268;BME280;11052;43.338;25.502;2023-03-04T08:28:16;100789.41;;;9.40;100.00
2268;BME280;11052;43.338;25.502;2023-03-04T08:30:52;100786.66;;;9.49;100.00
2268;BME280;11052;43.338;25.502;2023-03-04T08:33:19;100792.56;;;9.54;100.00
2268;BME280;11052;43.338;25.502;2023-03-04T08:35:46;100788.06;;;9.66;100.00
2268;BME280;11052;43.338;25.502;2023-03-04T08:38:13;100789.75;;;9.68;100.00
2268;BME280;11052;43.338;25.502;2023-03-04T08:40:40;100787.75;;;9.82;100.00
2268;BME280;11052;43.338;25.502;2023-03-04T08:43:07;100778.13;;;9.89;100.00
2268;BME280;11052;43.338;25.502;2023-03-04T08:45:35;100781.28;;;10.03;100.00
2268;BME280;11052;43.338;25.502;2023-03-04T08:48:03;100776.97;;;10.04;100.00
2268;BME280;11052;43.338;25.502;2023-03-04T08:50:30;100772.31;;;10.23;100.00
2268;BME280;11052;43.338;25.502;2023-03-04T08:52:58;100775.94;;;10.12;100.00
2268;BME280;11052;43.338;25.502;2023-03-04T08:55:26;100779.03;;;10.31;100.00
2268;BME280;11052;43.338;25.502;2023-03-04T08:57:54;100771.69;;;10.50;100.00
2268;BME280;11052;43.338;25.502;2023-03-04T09:00:22;100762.75;;;10.63;100.00
2268;BME280;11052;43.338;25.502;2023-03-04T09:02:50;100765.47;;;10.94;100.00
2268;BME280;11052;43.338;25.502;2023-03-04T09:05:18;100761.75;;;11.38;100.00
2268;BME280;11052;43.338;25.502;2023-03-04T09:07:45;100754.69;;;11.76;100.00
2268;BME280;11052;43.338;25.502;2023-03-04T09:10:13;100756.84;;;11.93;100.00
2268;BME280;11052;43.338;25.502;2023-03-04T09:12:40;100745.34;;;12.01;100.00
2268;BME280;11052;43.338;25.502;2023-03-04T09:15:08;100746.44;;;12.22;100.00
2268;BME280;11052;43.338;25.502;2023-03-04T09:17:35;100742.16;;;12.49;100.00
2268;BME280;11052;43.338;25.502;2023-03-04T09:20:05;100746.16;;;12.59;100.00
2268;BME280;11052;43.338;25.502;2023-03-04T09:22:35;100745.97;;;12.65;100.00
2268;BME280;11052;43.338;25.502;2023-03-04T09:25:02;100747.72;;;12.93;100.00
2268;BME280;11052;43.338;25.502;2023-03-04T09:27:30;100747.50;;;12.99;100.00
2268;BME280;11052;43.338;25.502;2023-03-04T09:29:57;100745.38;;;13.10;100.00
2268;BME280;11052;43.338;25.502;2023-03-04T09:32:24;100737.09;;;12.99;100.00
2268;BME280;11052;43.338;25.502;2023-03-04T09:34:52;100738.53;;;12.81;100.00
2268;BME280;11052;43.338;25.502;2023-03-04T09:37:19;100735.16;;;13.04;100.00
2268;BME280;11052;43.338;25.502;2023-03-04T09:39:47;100736.34;;;13.22;100.00
2268;BME280;11052;43.338;25.502;2023-03-04T09:42:23;100732.34;;;13.10;100.00
2268;BME280;11052;43.338;25.502;2023-03-04T09:44:52;100734.09;;;13.09;100.00
2268;BME280;11052;43.338;25.502;2023-03-04T09:47:22;100726.88;;;13.19;100.00
2268;BME280;11052;43.338;25.502;2023-03-04T09:49:53;100723.84;;;13.31;100.00
2268;BME280;11052;43.338;25.502;2023-03-04T09:52:32;100716.94;;;13.30;100.00
2268;BME280;11052;43.338;25.502;2023-03-04T09:55:07;100720.34;;;13.06;100.00
2268;BME280;11052;43.338;25.502;2023-03-04T09:57:49;100717.28;;;12.95;100.00
2268;BME280;11052;43.338;25.502;2023-03-04T10:00:21;100715.28;;;12.76;100.00
2268;BME280;11052;43.338;25.502;2023-03-04T10:03:05;100719.34;;;13.10;100.00
2268;BME280;11052;43.338;25.502;2023-03-04T10:05:40;100708.81;;;13.13;100.00
2268;BME280;11052;43.338;25.502;2023-03-04T10:08:23;100706.59;;;13.02;100.00
2268;BME280;11052;43.338;25.502;2023-03-04T10:10:55;100703.97;;;12.77;100.00
2268;BME280;11052;43.338;25.502;2023-03-04T10:13:30;100695.16;;;12.82;100.00
2268;BME280;11052;43.338;25.502;2023-03-04T10:16:02;100697.06;;;12.50;100.00
2268;BME280;11052;43.338;25.502;2023-03-04T10:18:35;100693.25;;;12.60;100.00
2268;BME280;11052;43.338;25.502;2023-03-04T10:21:09;100683.84;;;12.56;100.00
2268;BME280;11052;43.338;25.502;2023-03-04T10:23:40;100683.06;;;12.80;100.00
2268;BME280;11052;43.338;25.502;2023-03-04T10:26:13;100676.16;;;13.04;100.00
2268;BME280;11052;43.338;25.502;2023-03-04T10:28:40;100676.78;;;13.37;100.00
2268;BME280;11052;43.338;25.502;2023-03-04T10:31:11;100672.94;;;13.48;100.00
2268;BME280;11052;43.338;25.502;2023-03-04T10:33:42;100666.09;;;13.45;100.00
2268;BME280;11052;43.338;25.502;2023-03-04T10:36:28;100668.53;;;13.25;100.00
2268;BME280;11052;43.338;25.502;2023-03-04T10:39:01;100666.50;;;13.08;100.00
2268;BME280;11052;43.338;25.502;2023-03-04T10:41:32;100664.44;;;12.93;100.00
2268;BME280;11052;43.338;25.502;2023-03-04T10:44:01;100659.59;;;12.82;100.00
2268;BME280;11052;43.338;25.502;2023-03-04T10:46:29;100658.16;;;12.73;100.00
2268;BME280;11052;43.338;25.502;2023-03-04T10:48:57;100652.91;;;12.75;100.00
2268;BME280;11052;43.338;25.502;2023-03-04T10:51:26;100647.44;;;12.83;100.00
2268;BME280;11052;43.338;25.502;2023-03-04T10:53:56;100639.53;;;12.59;100.00
2268;BME280;11052;43.338;25.502;2023-03-04T10:56:34;100640.13;;;12.67;100.00
2268;BME280;11052;43.338;25.502;2023-03-04T11:02:17;100623.50;;;12.46;100.00
2268;BME280;11052;43.338;25.502;2023-03-04T11:04:53;100618.19;;;12.50;100.00
2268;BME280;11052;43.338;25.502;2023-03-04T11:07:22;100613.59;;;12.58;100.00
2268;BME280;11052;43.338;25.502;2023-03-04T11:09:50;100606.31;;;12.67;100.00
2268;BME280;11052;43.338;25.502;2023-03-04T11:12:30;100597.53;;;12.71;100.00
2268;BME280;11052;43.338;25.502;2023-03-04T11:14:58;100592.31;;;12.96;100.00
2268;BME280;11052;43.338;25.502;2023-03-04T11:17:27;100587.72;;;13.03;100.00
2268;BME280;11052;43.338;25.502;2023-03-04T11:19:59;100584.97;;;13.07;100.00
2268;BME280;11052;43.338;25.502;2023-03-04T11:22:29;100577.47;;;13.47;100.00
2268;BME280;11052;43.338;25.502;2023-03-04T11:25:01;100568.28;;;13.60;100.00
2268;BME280;11052;43.338;25.502;2023-03-04T11:27:41;100567.22;;;13.87;100.00
2268;BME280;11052;43.338;25.502;2023-03-04T11:30:28;100570.16;;;14.22;100.00
2268;BME280;11052;43.338;25.502;2023-03-04T11:33:08;100562.69;;;14.34;100.00
2268;BME280;11052;43.338;25.502;2023-03-04T11:35:44;100561.78;;;14.35;100.00
2268;BME280;11052;43.338;25.502;2023-03-04T11:38:18;100556.91;;;14.06;100.00
2268;BME280;11052;43.338;25.502;2023-03-04T11:40:49;100554.38;;;13.83;100.00
2268;BME280;11052;43.338;25.502;2023-03-04T11:43:24;100550.69;;;13.66;100.00
2268;BME280;11052;43.338;25.502;2023-03-04T11:48:49;100546.00;;;13.53;100.00
2268;BME280;11052;43.338;25.502;2023-03-04T11:51:22;100538.19;;;13.53;100.00
2268;BME280;11052;43.338;25.502;2023-03-04T11:54:04;100532.56;;;13.63;100.00
2268;BME280;11052;43.338;25.502;2023-03-04T11:56:41;100529.44;;;13.97;100.00
2268;BME280;11052;43.338;25.502;2023-03-04T11:59:46;100522.84;;;14.31;100.00
2268;BME280;11052;43.338;25.502;2023-03-04T12:02:18;100529.09;;;14.49;100.00
2268;BME280;11052;43.338;25.502;2023-03-04T12:08:12;100521.69;;;14.38;100.00
2268;BME280;11052;43.338;25.502;2023-03-04T12:10:50;100517.88;;;14.25;100.00
2268;BME280;11052;43.338;25.502;2023-03-04T12:13:33;100511.56;;;14.30;100.00
2268;BME280;11052;43.338;25.502;2023-03-04T12:16:18;100512.03;;;14.20;100.00
2268;BME280;11052;43.338;25.502;2023-03-04T12:19:04;100510.72;;;14.30;100.00
2268;BME280;11052;43.338;25.502;2023-03-04T12:21:51;100500.53;;;14.24;100.00
2268;BME280;11052;43.338;25.502;2023-03-04T12:24:36;100498.91;;;14.21;100.00
2268;BME280;11052;43.338;25.502;2023-03-04T12:27:15;100491.84;;;14.45;100.00
2268;BME280;11052;43.338;25.502;2023-03-04T12:29:49;100495.91;;;14.52;100.00
2268;BME280;11052;43.338;25.502;2023-03-04T12:32:27;100495.44;;;14.63;100.00
2268;BME280;11052;43.338;25.502;2023-03-04T12:35:20;100490.59;;;14.33;100.00
2268;BME280;11052;43.338;25.502;2023-03-04T12:38:13;100481.97;;;14.11;100.00
2268;BME280;11052;43.338;25.502;2023-03-04T12:40:49;100480.44;;;14.05;100.00
2268;BME280;11052;43.338;25.502;2023-03-04T12:43:28;100476.16;;;14.04;100.00
2268;BME280;11052;43.338;25.502;2023-03-04T12:46:05;100477.00;;;14.05;100.00
2268;BME280;11052;43.338;25.502;2023-03-04T12:48:41;100475.38;;;14.23;100.00
2268;BME280;11052;43.338;25.502;2023-03-04T12:51:26;100463.78;;;14.09;100.00
2268;BME280;11052;43.338;25.502;2023-03-04T12:54:05;100455.81;;;14.13;100.00
2268;BME280;11052;43.338;25.502;2023-03-04T12:56:39;100451.13;;;14.21;100.00
2268;BME280;11052;43.338;25.502;2023-03-04T12:59:13;100456.81;;;14.10;100.00
2268;BME280;11052;43.338;25.502;2023-03-04T13:01:43;100448.59;;;13.99;100.00
2268;BME280;11052;43.338;25.502;2023-03-04T13:04:18;100452.19;;;14.17;100.00
2268;BME280;11052;43.338;25.502;2023-03-04T13:06:59;100439.00;;;14.20;100.00
2268;BME280;11052;43.338;25.502;2023-03-04T13:09:39;100436.22;;;14.24;100.00
2268;BME280;11052;43.338;25.502;2023-03-04T13:12:14;100436.41;;;14.40;100.00